Time;durP1;ratioP1;P1;durP2;ratioP2;P2;SDS_P1;SDS_P2;PMS_P1;PMS_P2;Temp;Humidity;BMP_temperature;BMP_pressure;BME280_temperature;BME280_humidity;BME280_pressure;Samples;Min_cycle;Max_cycle;Signal;HPM_P1;HPM_P2
2021/08/20 00:00:34;;;;;;;184.02;99.47;;;;;;;;;;5271018;27;20038;-86
2021/08/20 00:03:03;;;;;;;170.87;97.75;;;;;;;;;;5291265;27;20025;-86
2021/08/20 00:05:31;;;;;;;176.60;98.90;;;;;;;;;;5271413;27;20087;-87
2021/08/20 00:08:00;;;;;;;182.48;100.68;;;;;;;;;;5292752;27;20022;-86
2021/08/20 00:10:28;;;;;;;208.45;122.32;;;;;;;;;;5289814;27;20120;-86
2021/08/20 00:12:57;;;;;;;208.57;122.50;;;;;;;;;;5292367;27;20482;-86
2021/08/20 00:15:25;;;;;;;161.65;107.18;;;;;;;;;;5293243;27;20088;-86
2021/08/20 00:17:54;;;;;;;153.18;106.68;;;;;;;;;;5271298;27;20482;-85
2021/08/20 00:20:22;;;;;;;152.30;104.00;;;;;;;;;;5293052;27;20340;-86
2021/08/20 00:22:51;;;;;;;158.27;104.00;;;;;;;;;;5288976;27;20043;-86
2021/08/20 00:25:20;;;;;;;150.82;102.47;;;;;;;;;;5291016;27;20375;-86
2021/08/20 00:27:49;;;;;;;198.02;116.57;;;;;;;;;;5291518;27;20071;-86
2021/08/20 00:30:17;;;;;;;201.65;115.15;;;;;;;;;;5289683;27;20371;-85
2021/08/20 00:32:49;;;;;;;184.95;115.43;;;;;;;;;;5292257;27;20036;-86
2021/08/20 00:35:19;;;;;;;163.45;102.57;;;;;;;;;;5292704;27;20015;-86
2021/08/20 00:37:48;;;;;;;153.40;103.03;;;;;;;;;;5290987;27;20044;-86
2021/08/20 00:40:17;;;;;;;164.10;101.32;;;;;;;;;;5291681;27;20436;-86
2021/08/20 00:42:46;;;;;;;146.55;99.10;;;;;;;;;;5292064;27;20014;-87
2021/08/20 00:45:15;;;;;;;154.35;96.28;;;;;;;;;;5289609;27;20025;-86
2021/08/20 00:47:44;;;;;;;144.35;95.65;;;;;;;;;;5292131;27;20397;-86
2021/08/20 00:50:12;;;;;;;149.35;95.18;;;;;;;;;;5292517;27;20025;-86
2021/08/20 00:52:41;;;;;;;145.15;100.30;;;;;;;;;;5293487;27;20026;-86
2021/08/20 00:55:13;;;;;;;150.50;100.87;;;;;;;;;;5291763;27;20017;-87
2021/08/20 00:57:48;;;;;;;137.82;98.05;;;;;;;;;;5291630;27;20073;-86
2021/08/20 01:00:18;;;;;;;141.77;96.80;;;;;;;;;;5289506;27;20010;-86
2021/08/20 01:02:47;;;;;;;124.38;93.30;;;;;;;;;;5290833;27;20115;-86
2021/08/20 01:05:19;;;;;;;158.73;101.30;;;;;;;;;;5291083;27;20357;-86
2021/08/20 01:07:48;;;;;;;161.52;101.40;;;;;;;;;;5292679;27;20025;-86
2021/08/20 01:10:17;;;;;;;139.00;91.40;;;;;;;;;;5292192;27;20044;-85
2021/08/20 01:12:45;;;;;;;130.93;84.65;;;;;;;;;;5292734;27;20021;-86
2021/08/20 01:15:14;;;;;;;146.87;84.95;;;;;;;;;;5292144;27;20057;-87
2021/08/20 01:17:43;;;;;;;141.07;83.65;;;;;;;;;;5289409;27;20022;-86
2021/08/20 01:20:12;;;;;;;142.98;84.45;;;;;;;;;;5289570;27;20021;-86
2021/08/20 01:22:44;;;;;;;143.93;85.35;;;;;;;;;;5291564;27;20567;-86
2021/08/20 01:25:13;;;;;;;135.12;83.40;;;;;;;;;;5270605;27;20712;-87
2021/08/20 01:27:41;;;;;;;144.85;83.57;;;;;;;;;;5290388;27;20108;-87
2021/08/20 01:30:10;;;;;;;132.73;89.18;;;;;;;;;;5288623;27;20017;-85
2021/08/20 01:32:39;;;;;;;126.95;92.55;;;;;;;;;;5291103;27;20328;-86
2021/08/20 01:35:08;;;;;;;119.70;92.82;;;;;;;;;;5290868;27;20040;-87
2021/08/20 01:37:36;;;;;;;106.60;86.12;;;;;;;;;;5290321;27;20075;-86
2021/08/20 01:40:05;;;;;;;132.18;93.43;;;;;;;;;;5292085;27;20079;-86
2021/08/20 01:42:34;;;;;;;152.10;95.97;;;;;;;;;;5290160;27;20025;-86
2021/08/20 01:45:03;;;;;;;155.93;95.20;;;;;;;;;;5289185;27;20047;-86
2021/08/20 01:47:31;;;;;;;131.73;84.70;;;;;;;;;;5291655;27;20033;-86
2021/08/20 01:50:00;;;;;;;130.65;85.07;;;;;;;;;;5291444;27;20029;-87
2021/08/20 01:52:28;;;;;;;138.45;85.20;;;;;;;;;;5290714;27;20029;-86
2021/08/20 01:54:59;;;;;;;128.68;84.20;;;;;;;;;;5291553;27;20016;-86
2021/08/20 01:57:28;;;;;;;126.70;85.80;;;;;;;;;;5291880;27;20036;-86
2021/08/20 01:59:57;;;;;;;138.75;86.40;;;;;;;;;;5292311;27;20045;-86
2021/08/20 02:02:26;;;;;;;147.48;94.75;;;;;;;;;;5290785;27;20068;-86
2021/08/20 02:04:55;;;;;;;148.98;94.47;;;;;;;;;;5292093;27;20048;-86
2021/08/20 02:07:24;;;;;;;118.78;85.97;;;;;;;;;;5270341;27;20010;-86
2021/08/20 02:09:52;;;;;;;110.70;86.65;;;;;;;;;;5291251;27;20051;-86
2021/08/20 02:12:21;;;;;;;119.15;87.62;;;;;;;;;;5291074;27;20066;-86
2021/08/20 02:14:50;;;;;;;113.97;80.70;;;;;;;;;;5292102;27;20058;-86
2021/08/20 02:17:19;;;;;;;106.22;78.18;;;;;;;;;;5292541;27;20603;-86
2021/08/20 02:19:48;;;;;;;151.70;85.87;;;;;;;;;;5290864;27;20033;-86
2021/08/20 02:22:17;;;;;;;141.82;86.25;;;;;;;;;;5289855;27;20061;-87
2021/08/20 02:24:45;;;;;;;144.25;86.32;;;;;;;;;;5292146;27;20031;-86
2021/08/20 02:27:14;;;;;;;128.90;76.90;;;;;;;;;;5291217;27;20033;-86
2021/08/20 02:29:43;;;;;;;115.18;75.95;;;;;;;;;;5289893;27;20048;-86
2021/08/20 02:32:11;;;;;;;120.07;74.53;;;;;;;;;;5290672;27;20020;-86
2021/08/20 02:34:41;;;;;;;136.80;81.32;;;;;;;;;;5292381;27;20215;-86
2021/08/20 02:37:09;;;;;;;119.28;75.15;;;;;;;;;;5291299;27;20470;-85
2021/08/20 02:39:40;;;;;;;115.90;74.72;;;;;;;;;;5289900;27;20068;-86
2021/08/20 02:42:09;;;;;;;122.60;80.07;;;;;;;;;;5292233;27;20036;-86
2021/08/20 02:44:38;;;;;;;125.70;85.78;;;;;;;;;;5292919;27;20058;-86
2021/08/20 02:47:07;;;;;;;123.35;84.45;;;;;;;;;;5290824;27;20352;-87
2021/08/20 02:49:36;;;;;;;126.85;86.07;;;;;;;;;;5292131;27;20045;-85
2021/08/20 02:52:05;;;;;;;125.22;86.60;;;;;;;;;;5293188;27;20021;-86
2021/08/20 02:54:34;;;;;;;114.80;83.00;;;;;;;;;;5273634;27;20466;-86
2021/08/20 02:57:03;;;;;;;142.18;85.78;;;;;;;;;;5272402;27;20037;-86
2021/08/20 02:59:32;;;;;;;144.70;86.80;;;;;;;;;;5290217;27;20052;-87
2021/08/20 03:02:00;;;;;;;139.55;83.15;;;;;;;;;;5291662;27;20398;-86
2021/08/20 03:04:29;;;;;;;138.40;81.53;;;;;;;;;;5293432;27;20051;-87
2021/08/20 03:06:58;;;;;;;133.30;77.93;;;;;;;;;;5290456;27;20537;-86
2021/08/20 03:09:27;;;;;;;117.85;78.28;;;;;;;;;;5292991;27;20068;-86
2021/08/20 05:38:31;;;;;;;117.80;73.60;;;;;;;;;;5244357;27;20078;-85
2021/08/20 05:41:13;;;;;;;116.20;67.55;;;;;;;;;;4452384;31;20083;-86
2021/08/20 05:43:55;;;;;;;114.43;67.87;;;;;;;;;;4450288;31;20071;-84
2021/08/20 05:46:35;;;;;;;111.10;68.30;;;;;;;;;;4451881;31;20091;-85
2021/08/20 05:49:18;;;;;;;100.18;64.50;;;;;;;;;;5352800;26;20039;-84
2021/08/20 05:52:02;;;;;;;85.35;60.53;;;;;;;;;;4444911;31;20481;-85
2021/08/20 05:54:44;;;;;;;98.53;68.10;;;;;;;;;;4446737;31;20084;-85
2021/08/20 05:57:26;;;;;;;113.22;76.65;;;;;;;;;;4434142;31;20080;-84
2021/08/20 06:00:08;;;;;;;93.30;70.15;;;;;;;;;;4458080;31;20577;-85
2021/08/20 06:02:52;;;;;;;122.93;72.20;;;;;;;;;;4457463;31;20087;-85
2021/08/20 06:05:35;;;;;;;125.85;73.80;;;;;;;;;;4460290;31;20121;-86
2021/08/20 06:08:17;;;;;;;114.65;70.47;;;;;;;;;;4453639;31;20022;-84
2021/08/20 06:10:59;;;;;;;99.20;67.93;;;;;;;;;;4428408;32;20143;-85
2021/08/20 06:13:40;;;;;;;111.50;67.87;;;;;;;;;;4447311;31;20087;-83
2021/08/20 06:16:21;;;;;;;104.65;68.20;;;;;;;;;;4447149;31;20477;-84
2021/08/20 06:19:03;;;;;;;109.25;66.37;;;;;;;;;;4463062;31;20075;-84
2021/08/20 06:21:45;;;;;;;111.15;70.75;;;;;;;;;;4450045;31;20115;-84
2021/08/20 06:24:27;;;;;;;97.05;68.40;;;;;;;;;;4450284;31;20398;-85
2021/08/20 06:27:07;;;;;;;88.60;67.12;;;;;;;;;;4448327;31;20119;-84
2021/08/20 06:29:50;;;;;;;94.78;70.72;;;;;;;;;;4459462;31;20115;-84
2021/08/20 06:32:30;;;;;;;100.03;69.68;;;;;;;;;;4449552;31;20531;-84
2021/08/20 06:35:12;;;;;;;92.78;67.45;;;;;;;;;;4457098;31;20469;-84
2021/08/20 06:37:53;;;;;;;91.32;73.68;;;;;;;;;;4460634;31;20079;-84
2021/08/20 06:40:35;;;;;;;100.43;69.78;;;;;;;;;;4450298;31;20076;-84
2021/08/20 06:43:17;;;;;;;98.35;75.18;;;;;;;;;;4442533;31;20681;-84
2021/08/20 07:38:01;;;;;;;99.72;77.78;;;;;;;;;;5202206;27;20030;-85
2021/08/20 07:40:42;;;;;;;84.03;75.50;;;;;;;;;;4444105;31;20147;-86
2021/08/20 07:43:23;;;;;;;74.05;66.87;;;;;;;;;;4426254;31;20080;-86
2021/08/20 07:56:27;;;;;;;10.73;2.92;;;;;;;;;;4430082;32;20120;-86
2021/08/20 07:59:09;;;;;;;12.40;3.20;;;;;;;;;;4439480;31;20029;-85
2021/08/20 08:01:48;;;;;;;11.88;3.17;;;;;;;;;;4443875;31;20115;-86
2021/08/20 08:04:30;;;;;;;11.68;3.33;;;;;;;;;;4446580;31;20083;-87
2021/08/20 09:09:37;;;;;;;21.45;3.80;;;;;;;;;;5189601;27;20073;-87
2021/08/20 09:12:28;;;;;;;16.12;3.15;;;;;;;;;;4440113;31;20125;-86
2021/08/20 09:15:15;;;;;;;13.25;3.20;;;;;;;;;;4439291;31;20104;-85
2021/08/20 11:56:33;;;;;;;8.30;2.62;;;;;;;;;;5182672;27;20327;-83
2021/08/20 11:59:11;;;;;;;11.43;2.95;;;;;;;;;;5222111;27;20101;-85
2021/08/20 12:01:40;;;;;;;9.30;2.60;;;;;;;;;;5219771;27;20064;-85
2021/08/20 12:04:30;;;;;;;10.68;3.05;;;;;;;;;;5223030;27;20445;-85
2021/08/20 12:06:58;;;;;;;18.77;3.42;;;;;;;;;;5222030;27;20010;-86
2021/08/20 12:09:27;;;;;;;6.82;2.47;;;;;;;;;;5222205;27;20031;-85
2021/08/20 12:11:56;;;;;;;10.02;2.47;;;;;;;;;;5202927;27;20397;-85
2021/08/20 12:14:27;;;;;;;8.52;2.30;;;;;;;;;;5221674;27;20022;-85
2021/08/20 12:16:57;;;;;;;11.05;2.58;;;;;;;;;;5204877;27;20049;-85
2021/08/20 12:19:26;;;;;;;11.95;2.58;;;;;;;;;;5220978;27;20038;-84
2021/08/20 12:21:55;;;;;;;10.85;2.40;;;;;;;;;;5223675;27;20081;-86
2021/08/20 12:24:31;;;;;;;8.10;2.62;;;;;;;;;;5202617;27;20283;-85
2021/08/20 12:27:19;;;;;;;9.70;2.72;;;;;;;;;;5221571;27;20577;-85
2021/08/20 12:30:00;;;;;;;12.68;2.62;;;;;;;;;;5222383;27;20617;-85
2021/08/20 12:32:32;;;;;;;10.35;2.62;;;;;;;;;;5221252;27;20010;-87
2021/08/20 12:35:27;;;;;;;10.82;2.45;;;;;;;;;;5202554;27;20026;-84
2021/08/20 12:38:22;;;;;;;9.68;2.70;;;;;;;;;;5225753;27;20070;-86
2021/08/20 12:40:54;;;;;;;9.05;2.45;;;;;;;;;;5225776;27;20029;-85
2021/08/20 12:43:25;;;;;;;11.02;2.80;;;;;;;;;;5226241;27;20034;-84
2021/08/20 12:46:00;;;;;;;11.85;3.00;;;;;;;;;;5224159;27;20026;-85
2021/08/20 12:48:29;;;;;;;11.18;2.90;;;;;;;;;;5225984;27;20010;-85
2021/08/20 12:50:59;;;;;;;12.07;2.42;;;;;;;;;;5202564;27;20027;-85
2021/08/20 12:53:28;;;;;;;8.68;2.95;;;;;;;;;;5207863;27;20268;-86
2021/08/20 12:55:57;;;;;;;15.96;2.96;;;;;;;;;;5206137;27;20028;-85
2021/08/20 12:58:30;;;;;;;25.15;4.40;;;;;;;;;;5200690;27;20857;-84
2021/08/20 13:00:59;;;;;;;11.60;2.87;;;;;;;;;;5203493;27;20033;-83
2021/08/20 13:03:29;;;;;;;9.55;2.70;;;;;;;;;;5203837;27;20037;-85
2021/08/20 13:05:59;;;;;;;8.68;2.83;;;;;;;;;;5202804;27;20015;-85
2021/08/20 13:08:29;;;;;;;13.93;3.42;;;;;;;;;;5202134;27;20345;-85
2021/08/20 13:10:58;;;;;;;10.00;2.65;;;;;;;;;;5203485;27;20045;-85
2021/08/20 13:13:27;;;;;;;19.27;3.55;;;;;;;;;;5202210;27;20033;-85
2021/08/20 13:15:56;;;;;;;11.40;2.92;;;;;;;;;;5204654;27;20050;-84
2021/08/20 13:18:24;;;;;;;12.10;2.75;;;;;;;;;;5204530;27;20034;-84
2021/08/20 13:20:54;;;;;;;19.83;3.53;;;;;;;;;;5203242;27;20709;-85
2021/08/20 13:23:23;;;;;;;13.90;2.95;;;;;;;;;;5203227;27;20069;-84
2021/08/20 13:25:52;;;;;;;27.13;4.18;;;;;;;;;;5204900;27;20053;-84
2021/08/20 13:28:20;;;;;;;13.38;3.17;;;;;;;;;;5203319;27;20330;-85
2021/08/20 13:30:49;;;;;;;11.55;2.97;;;;;;;;;;5202750;27;20034;-84
2021/08/20 13:33:18;;;;;;;13.98;3.17;;;;;;;;;;5200742;27;20026;-85
2021/08/20 13:35:46;;;;;;;15.50;3.45;;;;;;;;;;5203249;27;20042;-85
2021/08/20 13:38:15;;;;;;;14.52;3.22;;;;;;;;;;5203643;27;20050;-84
2021/08/20 13:40:43;;;;;;;14.75;2.75;;;;;;;;;;5202686;27;20053;-85
2021/08/20 13:43:11;;;;;;;14.20;3.42;;;;;;;;;;5203643;27;20038;-84
2021/08/20 13:45:40;;;;;;;14.02;3.15;;;;;;;;;;5204315;27;20323;-84
2021/08/20 13:48:09;;;;;;;22.42;3.08;;;;;;;;;;5203029;27;20416;-84
2021/08/20 13:50:38;;;;;;;18.87;3.47;;;;;;;;;;5201838;27;20025;-85
2021/08/20 13:53:07;;;;;;;13.65;2.67;;;;;;;;;;5200910;27;20442;-84
2021/08/20 13:55:36;;;;;;;15.75;3.30;;;;;;;;;;5200935;27;20481;-84
2021/08/20 13:58:05;;;;;;;13.50;2.33;;;;;;;;;;5200556;27;20683;-85
2021/08/20 14:00:37;;;;;;;12.37;2.83;;;;;;;;;;5202127;27;20427;-85
2021/08/20 14:03:06;;;;;;;12.00;3.15;;;;;;;;;;5203785;27;20046;-85
2021/08/20 14:05:35;;;;;;;18.45;3.30;;;;;;;;;;5202673;27;20057;-83
2021/08/20 14:08:05;;;;;;;13.65;3.37;;;;;;;;;;5203428;27;20107;-84
2021/08/20 14:10:34;;;;;;;9.15;3.10;;;;;;;;;;5204994;27;20465;-84
2021/08/20 14:13:03;;;;;;;15.73;3.05;;;;;;;;;;5201910;27;20022;-84
2021/08/20 14:15:31;;;;;;;15.30;3.00;;;;;;;;;;5199605;27;20027;-84
2021/08/20 14:18:04;;;;;;;14.82;3.35;;;;;;;;;;5204826;27;20023;-84
2021/08/20 14:20:33;;;;;;;12.30;2.80;;;;;;;;;;5205015;27;20116;-84
2021/08/20 14:23:03;;;;;;;16.20;3.15;;;;;;;;;;5204161;27;20042;-84
2021/08/20 14:25:32;;;;;;;13.20;2.92;;;;;;;;;;5204760;27;20073;-84
2021/08/20 14:28:01;;;;;;;12.30;3.10;;;;;;;;;;5205574;27;20025;-84
2021/08/20 14:30:30;;;;;;;13.62;3.08;;;;;;;;;;5202911;27;20022;-85
2021/08/20 14:32:59;;;;;;;14.68;3.03;;;;;;;;;;5205030;27;20031;-84
2021/08/20 14:35:27;;;;;;;17.23;2.83;;;;;;;;;;5204413;27;20042;-84
2021/08/20 14:37:56;;;;;;;16.33;2.90;;;;;;;;;;5206091;27;20080;-84
2021/08/20 14:40:25;;;;;;;11.48;2.72;;;;;;;;;;5203552;27;20209;-84
2021/08/20 14:42:53;;;;;;;14.68;3.08;;;;;;;;;;5201939;27;20023;-84
2021/08/20 14:45:22;;;;;;;15.65;3.00;;;;;;;;;;5205410;27;20488;-84
2021/08/20 14:47:51;;;;;;;11.57;2.70;;;;;;;;;;5204154;27;20381;-85
2021/08/20 14:50:20;;;;;;;11.88;2.92;;;;;;;;;;5204030;27;20062;-85
2021/08/20 14:52:49;;;;;;;12.82;2.53;;;;;;;;;;5205092;27;20019;-85
2021/08/20 14:55:19;;;;;;;18.05;3.65;;;;;;;;;;5205906;27;20022;-84
2021/08/20 14:57:47;;;;;;;14.98;3.45;;;;;;;;;;5219029;27;20405;-84
2021/08/20 15:00:16;;;;;;;16.92;3.08;;;;;;;;;;5225746;27;20018;-84
2021/08/20 15:02:45;;;;;;;12.80;2.87;;;;;;;;;;5207534;27;20076;-84
2021/08/20 15:05:14;;;;;;;14.25;2.80;;;;;;;;;;5227303;27;20025;-84
2021/08/20 15:07:43;;;;;;;16.60;2.83;;;;;;;;;;5206916;27;20050;-84
2021/08/20 15:10:12;;;;;;;15.27;2.87;;;;;;;;;;5227664;27;20031;-84
2021/08/20 15:12:48;;;;;;;15.75;2.83;;;;;;;;;;5207676;27;20039;-84
2021/08/20 15:15:16;;;;;;;13.80;3.08;;;;;;;;;;5224596;27;20098;-85
2021/08/20 15:17:45;;;;;;;19.17;3.40;;;;;;;;;;5224266;27;20066;-84
2021/08/20 15:20:13;;;;;;;14.13;2.95;;;;;;;;;;5225577;27;20125;-84
2021/08/20 15:22:42;;;;;;;12.27;2.70;;;;;;;;;;5206703;27;20035;-84
2021/08/20 15:25:12;;;;;;;15.50;3.17;;;;;;;;;;5226272;27;20045;-84
2021/08/20 15:27:41;;;;;;;15.40;3.30;;;;;;;;;;5224174;27;20487;-84
2021/08/20 15:30:10;;;;;;;14.40;2.97;;;;;;;;;;5223744;27;20050;-86
2021/08/20 15:32:39;;;;;;;19.92;3.45;;;;;;;;;;5225349;27;20026;-86
2021/08/20 15:35:08;;;;;;;13.00;2.62;;;;;;;;;;5206941;27;20026;-86
2021/08/20 15:37:53;;;;;;;13.30;3.00;;;;;;;;;;5222645;27;20023;-86
2021/08/20 15:40:23;;;;;;;13.65;3.47;;;;;;;;;;5226028;27;20056;-86
2021/08/20 15:42:52;;;;;;;13.55;3.05;;;;;;;;;;5226879;27;20031;-86
2021/08/20 15:45:21;;;;;;;22.77;3.60;;;;;;;;;;5226639;27;20043;-85
2021/08/20 15:47:49;;;;;;;12.82;2.90;;;;;;;;;;5225014;27;20395;-86
2021/08/20 15:50:19;;;;;;;14.20;3.33;;;;;;;;;;5225087;27;20030;-86
2021/08/20 15:52:47;;;;;;;17.08;2.87;;;;;;;;;;5224954;27;20062;-87
2021/08/20 15:55:17;;;;;;;11.30;3.05;;;;;;;;;;5206163;27;20057;-87
2021/08/20 15:57:46;;;;;;;13.27;2.65;;;;;;;;;;5227337;27;20076;-86
2021/08/20 16:00:15;;;;;;;17.40;3.37;;;;;;;;;;5223745;27;20026;-87
2021/08/20 16:02:44;;;;;;;12.07;2.90;;;;;;;;;;5225381;27;20070;-85
2021/08/20 16:05:12;;;;;;;15.60;3.45;;;;;;;;;;5224906;27;20224;-84
2021/08/20 16:07:41;;;;;;;20.17;3.50;;;;;;;;;;5226803;27;20041;-86
2021/08/20 16:10:12;;;;;;;18.40;3.62;;;;;;;;;;5225342;27;20050;-86
2021/08/20 16:12:40;;;;;;;13.30;2.30;;;;;;;;;;5225356;27;20007;-86
2021/08/20 16:15:10;;;;;;;13.62;2.85;;;;;;;;;;5226491;27;20033;-86
2021/08/20 16:17:39;;;;;;;11.98;2.60;;;;;;;;;;5224847;27;20380;-87
2021/08/20 16:20:07;;;;;;;15.57;3.25;;;;;;;;;;5226122;27;20464;-87
2021/08/20 16:22:40;;;;;;;16.87;3.00;;;;;;;;;;5205906;27;20399;-87
2021/08/20 16:25:09;;;;;;;13.52;3.05;;;;;;;;;;5228318;27;20097;-86
2021/08/20 16:27:38;;;;;;;20.10;3.55;;;;;;;;;;5225201;27;20376;-87
2021/08/20 16:30:07;;;;;;;31.87;3.97;;;;;;;;;;5223605;27;20046;-86
2021/08/20 16:32:36;;;;;;;13.35;2.60;;;;;;;;;;5221081;27;20065;-86
2021/08/20 16:35:05;;;;;;;15.02;3.17;;;;;;;;;;5221551;27;20092;-87
2021/08/20 16:37:33;;;;;;;17.67;3.42;;;;;;;;;;5222517;27;20072;-87
2021/08/20 16:40:04;;;;;;;17.65;2.92;;;;;;;;;;5222162;27;20065;-87
2021/08/20 16:42:33;;;;;;;15.95;3.12;;;;;;;;;;5202170;27;20073;-87
2021/08/20 16:45:01;;;;;;;13.20;2.70;;;;;;;;;;5221545;27;20027;-87
2021/08/20 16:47:30;;;;;;;14.20;2.97;;;;;;;;;;5220903;27;20103;-87
2021/08/20 16:49:58;;;;;;;17.33;3.35;;;;;;;;;;5222724;27;20057;-86
2021/08/20 16:52:27;;;;;;;18.75;3.75;;;;;;;;;;5221410;27;20079;-86
2021/08/20 16:54:55;;;;;;;11.63;2.90;;;;;;;;;;5221357;27;20041;-87
2021/08/20 16:57:24;;;;;;;17.40;3.25;;;;;;;;;;5221699;27;20072;-87
2021/08/20 16:59:52;;;;;;;13.30;3.42;;;;;;;;;;5224658;27;20028;-87
2021/08/20 17:02:21;;;;;;;15.27;3.58;;;;;;;;;;5203324;27;20056;-87
2021/08/20 17:04:49;;;;;;;15.90;3.60;;;;;;;;;;5199560;27;20042;-86
2021/08/20 17:07:18;;;;;;;20.75;4.30;;;;;;;;;;5222622;27;20026;-87
2021/08/20 17:09:46;;;;;;;15.45;4.82;;;;;;;;;;5202967;27;20404;-88
2021/08/20 17:12:15;;;;;;;21.37;10.52;;;;;;;;;;5221961;27;20092;-85
2021/08/20 17:14:43;;;;;;;15.35;6.75;;;;;;;;;;5222687;27;20524;-87
2021/08/20 17:17:11;;;;;;;24.37;10.35;;;;;;;;;;5221723;27;20053;-87
2021/08/20 17:19:40;;;;;;;18.27;9.98;;;;;;;;;;5223121;27;20026;-87
2021/08/20 17:22:09;;;;;;;22.27;15.43;;;;;;;;;;5185248;27;20020;-87
2021/08/20 17:24:37;;;;;;;22.65;12.23;;;;;;;;;;5222153;27;20058;-86
2021/08/20 17:27:07;;;;;;;28.67;17.58;;;;;;;;;;5203274;27;20054;-88
2021/08/20 17:29:35;;;;;;;26.75;23.80;;;;;;;;;;5202576;27;20042;-88
2021/08/20 17:32:04;;;;;;;35.55;32.50;;;;;;;;;;5223454;27;20060;-86
2021/08/20 17:34:32;;;;;;;47.28;31.85;;;;;;;;;;5221247;27;20072;-87
2021/08/20 17:37:02;;;;;;;47.58;43.78;;;;;;;;;;5202688;27;20031;-87
2021/08/20 17:39:31;;;;;;;46.25;42.50;;;;;;;;;;5223358;27;20051;-86
2021/08/20 17:42:00;;;;;;;42.78;38.53;;;;;;;;;;5202035;27;20059;-87
2021/08/20 17:44:29;;;;;;;47.38;43.58;;;;;;;;;;5221112;27;20061;-86
2021/08/20 17:46:57;;;;;;;59.50;55.20;;;;;;;;;;5224380;27;20033;-88
2021/08/20 17:49:26;;;;;;;51.90;47.20;;;;;;;;;;5225000;27;20073;-87
2021/08/20 17:51:54;;;;;;;45.85;41.95;;;;;;;;;;5203414;27;20083;-88
2021/08/20 17:54:22;;;;;;;48.45;44.30;;;;;;;;;;5224633;27;20018;-87
2021/08/20 17:56:52;;;;;;;46.67;41.95;;;;;;;;;;5224868;27;20042;-88
2021/08/20 17:59:20;;;;;;;54.97;49.28;;;;;;;;;;5205614;27;20062;-86
2021/08/20 18:01:49;;;;;;;47.62;43.00;;;;;;;;;;5204384;27;20052;-87
2021/08/20 18:04:18;;;;;;;51.20;45.30;;;;;;;;;;5221010;27;20064;-87
2021/08/20 18:06:46;;;;;;;59.75;38.22;;;;;;;;;;5223676;27;20049;-87
2021/08/20 18:09:14;;;;;;;41.63;37.40;;;;;;;;;;5203733;27;20046;-88
2021/08/20 18:11:43;;;;;;;61.65;53.60;;;;;;;;;;5221690;27;20069;-88
2021/08/20 18:14:11;;;;;;;51.17;42.30;;;;;;;;;;5223262;27;20035;-87
2021/08/20 18:16:40;;;;;;;57.60;50.60;;;;;;;;;;5221246;27;20034;-87
2021/08/20 18:19:08;;;;;;;62.22;54.63;;;;;;;;;;5225031;27;20081;-87
2021/08/20 18:21:37;;;;;;;69.87;59.95;;;;;;;;;;5220852;27;20137;-87
2021/08/20 18:24:06;;;;;;;58.95;51.25;;;;;;;;;;5223970;27;20042;-86
2021/08/20 18:26:35;;;;;;;69.15;58.78;;;;;;;;;;5221650;27;20045;-88
2021/08/20 18:29:04;;;;;;;71.25;63.75;;;;;;;;;;5219428;27;20018;-86
2021/08/20 18:31:33;;;;;;;87.57;78.28;;;;;;;;;;5221814;27;20108;-88
2021/08/20 18:34:01;;;;;;;84.72;76.15;;;;;;;;;;5203478;27;20039;-87
2021/08/20 18:36:30;;;;;;;112.85;95.57;;;;;;;;;;5202291;27;20054;-88
2021/08/20 18:38:58;;;;;;;115.75;91.50;;;;;;;;;;5202788;27;20052;-87
2021/08/20 18:41:27;;;;;;;148.90;117.82;;;;;;;;;;5223924;27;20061;-87
2021/08/20 18:43:56;;;;;;;161.50;123.53;;;;;;;;;;5201831;27;20068;-87
2021/08/20 18:46:24;;;;;;;175.12;125.97;;;;;;;;;;5220510;27;20077;-87
2021/08/20 18:48:53;;;;;;;173.25;110.75;;;;;;;;;;5221377;27;20069;-87
2021/08/20 18:51:21;;;;;;;162.40;105.75;;;;;;;;;;5225031;27;20488;-87
2021/08/20 18:53:49;;;;;;;170.77;104.28;;;;;;;;;;5222876;27;20023;-86
2021/08/20 18:56:18;;;;;;;183.57;121.43;;;;;;;;;;5222952;27;20080;-87
2021/08/20 18:58:47;;;;;;;181.12;123.00;;;;;;;;;;5184341;27;20041;-87
2021/08/20 19:01:15;;;;;;;153.87;107.32;;;;;;;;;;5220875;27;20351;-87
2021/08/20 19:03:45;;;;;;;152.70;107.97;;;;;;;;;;5221805;27;20062;-87
2021/08/20 19:06:14;;;;;;;153.65;108.07;;;;;;;;;;5223891;27;20037;-88
2021/08/20 19:08:42;;;;;;;163.07;114.43;;;;;;;;;;5222291;27;20069;-87
2021/08/20 19:11:12;;;;;;;174.45;120.95;;;;;;;;;;5220868;27;20065;-87
2021/08/20 19:13:40;;;;;;;230.68;135.82;;;;;;;;;;5201278;27;20485;-87
2021/08/20 19:16:08;;;;;;;180.32;106.80;;;;;;;;;;5222168;27;20058;-87
2021/08/20 19:18:37;;;;;;;149.85;88.43;;;;;;;;;;5219025;27;20074;-86
2021/08/20 19:21:05;;;;;;;162.98;94.05;;;;;;;;;;5223958;27;20018;-86
2021/08/20 19:23:34;;;;;;;155.15;97.53;;;;;;;;;;5225784;27;20038;-86
2021/08/20 19:26:03;;;;;;;204.43;105.75;;;;;;;;;;5227018;27;20052;-87
2021/08/20 19:28:31;;;;;;;194.77;107.43;;;;;;;;;;5225424;27;20022;-85
2021/08/20 19:30:59;;;;;;;208.68;104.57;;;;;;;;;;5207071;27;20073;-87
2021/08/20 19:33:28;;;;;;;160.25;114.80;;;;;;;;;;5224435;27;20078;-86
2021/08/20 19:35:56;;;;;;;196.52;105.68;;;;;;;;;;5225443;27;20046;-86
2021/08/20 19:38:25;;;;;;;159.55;115.55;;;;;;;;;;5223734;27;20482;-87
2021/08/20 19:40:56;;;;;;;192.20;132.82;;;;;;;;;;5226284;27;20057;-87
2021/08/20 19:43:25;;;;;;;193.98;127.62;;;;;;;;;;5227104;27;20142;-87
2021/08/20 19:45:54;;;;;;;198.27;131.95;;;;;;;;;;5224487;27;20076;-86
2021/08/20 19:48:22;;;;;;;214.48;137.95;;;;;;;;;;5225473;27;20045;-87
2021/08/20 19:50:51;;;;;;;227.38;138.27;;;;;;;;;;5205635;27;20659;-87
2021/08/20 19:53:20;;;;;;;223.57;134.63;;;;;;;;;;5222858;27;20524;-87
2021/08/20 19:55:48;;;;;;;210.75;131.77;;;;;;;;;;5224611;27;20042;-86
2021/08/20 19:58:16;;;;;;;224.27;136.23;;;;;;;;;;5222819;27;20096;-88
2021/08/20 20:00:45;;;;;;;222.18;135.57;;;;;;;;;;5224807;27;20077;-87
2021/08/20 20:03:14;;;;;;;229.20;137.55;;;;;;;;;;5224462;27;20027;-87
2021/08/20 20:05:43;;;;;;;271.30;167.65;;;;;;;;;;5225227;27;20019;-86
2021/08/20 20:08:11;;;;;;;268.30;161.25;;;;;;;;;;5205287;27;20041;-87
2021/08/20 20:10:41;;;;;;;273.00;167.07;;;;;;;;;;5224591;27;20459;-87
2021/08/20 20:13:09;;;;;;;264.70;159.60;;;;;;;;;;5226852;27;20053;-87
2021/08/20 20:15:38;;;;;;;211.10;138.70;;;;;;;;;;5225327;27;20079;-86
2021/08/20 20:18:06;;;;;;;207.87;141.10;;;;;;;;;;5225357;27;20468;-87
2021/08/20 20:20:34;;;;;;;229.15;151.23;;;;;;;;;;5226171;27;20034;-87
2021/08/20 20:23:03;;;;;;;236.00;148.48;;;;;;;;;;5225531;27;20396;-87
2021/08/20 20:25:31;;;;;;;215.05;137.18;;;;;;;;;;5225471;27;20466;-87
2021/08/20 20:28:00;;;;;;;217.20;130.55;;;;;;;;;;5227018;27;20050;-87
2021/08/20 20:30:29;;;;;;;209.45;128.23;;;;;;;;;;5226143;27;20175;-87
2021/08/20 20:32:58;;;;;;;212.73;124.65;;;;;;;;;;5224534;27;20058;-87
2021/08/20 20:35:26;;;;;;;240.82;145.40;;;;;;;;;;5225962;27;20037;-87
2021/08/20 20:37:54;;;;;;;241.63;141.35;;;;;;;;;;5205505;27;20045;-88
2021/08/20 20:40:23;;;;;;;231.82;138.60;;;;;;;;;;5223159;27;20387;-87
2021/08/20 20:42:52;;;;;;;209.90;123.82;;;;;;;;;;5188011;27;20051;-87
2021/08/20 20:45:20;;;;;;;248.85;139.98;;;;;;;;;;5223828;27;20030;-87
2021/08/20 20:47:49;;;;;;;243.68;133.75;;;;;;;;;;5226153;27;20073;-86
2021/08/20 20:50:18;;;;;;;244.93;136.90;;;;;;;;;;5225720;27;20019;-87
2021/08/20 20:52:46;;;;;;;172.85;125.22;;;;;;;;;;5224575;27;20019;-86
2021/08/20 20:55:15;;;;;;;168.07;119.28;;;;;;;;;;5225535;27;20377;-87
2021/08/20 20:57:45;;;;;;;162.40;118.35;;;;;;;;;;5221701;27;20068;-87
2021/08/20 21:00:15;;;;;;;196.85;127.93;;;;;;;;;;5223660;27;20038;-86
2021/08/20 21:02:45;;;;;;;202.70;130.30;;;;;;;;;;5226652;27;20435;-86
2021/08/20 21:05:13;;;;;;;196.48;112.82;;;;;;;;;;5224539;27;20018;-86
2021/08/20 21:07:42;;;;;;;229.30;128.95;;;;;;;;;;5205723;27;20068;-88
2021/08/20 21:10:10;;;;;;;223.65;129.07;;;;;;;;;;5205940;27;20018;-88
2021/08/20 21:12:40;;;;;;;213.80;129.38;;;;;;;;;;5224580;27;20066;-87
2021/08/20 21:15:10;;;;;;;224.95;125.53;;;;;;;;;;5224363;27;20088;-87
2021/08/20 21:17:38;;;;;;;215.50;126.38;;;;;;;;;;5223133;27;20018;-86
2021/08/20 21:20:08;;;;;;;190.00;119.13;;;;;;;;;;5223094;27;20126;-87
2021/08/20 21:22:37;;;;;;;205.30;124.78;;;;;;;;;;5224566;27;20056;-85
2021/08/20 21:25:06;;;;;;;198.95;126.25;;;;;;;;;;5223223;27;20036;-88
2021/08/20 21:27:35;;;;;;;202.18;123.10;;;;;;;;;;5222651;27;20069;-88
2021/08/20 21:30:04;;;;;;;171.68;125.30;;;;;;;;;;5184993;27;20425;-87
2021/08/20 21:32:32;;;;;;;170.75;126.75;;;;;;;;;;5218083;27;20060;-88
2021/08/20 21:35:00;;;;;;;167.80;123.22;;;;;;;;;;5217566;27;20057;-88
2021/08/20 21:37:45;;;;;;;164.45;120.80;;;;;;;;;;5215982;27;20069;-86
2021/08/20 21:40:14;;;;;;;182.48;125.40;;;;;;;;;;5217404;27;20065;-87
2021/08/20 21:42:42;;;;;;;217.05;127.62;;;;;;;;;;5218193;27;20344;-88